sensor_id;sensor_type;location;lat;lon;timestamp;pressure;altitude;pressure_sealevel;temperature;humidity
15568;BME280;7885;42.596;23.044;2023-03-23T00:01:01;92934.13;;;5.36;98.47
15568;BME280;7885;42.596;23.044;2023-03-23T00:03:27;92898.34;;;5.17;97.04
15568;BME280;7885;42.596;23.044;2023-03-23T00:05:57;92916.13;;;5.21;94.45
15568;BME280;7885;42.596;23.044;2023-03-23T00:08:30;92922.50;;;5.32;96.96
15568;BME280;7885;42.596;23.044;2023-03-23T00:10:57;92912.38;;;5.26;97.04
15568;BME280;7885;42.596;23.044;2023-03-23T00:13:28;92930.59;;;5.32;94.90
15568;BME280;7885;42.596;23.044;2023-03-23T00:15:55;92936.66;;;5.26;92.98
15568;BME280;7885;42.596;23.044;2023-03-23T00:18:23;92914.84;;;5.12;92.43
15568;BME280;7885;42.596;23.044;2023-03-23T00:20:51;92937.72;;;5.21;93.72
15568;BME280;7885;42.596;23.044;2023-03-23T00:23:19;92920.59;;;5.10;95.12
15568;BME280;7885;42.596;23.044;2023-03-23T00:25:47;92930.66;;;5.13;97.15
15568;BME280;7885;42.596;23.044;2023-03-23T00:28:14;92925.69;;;5.15;98.08
15568;BME280;7885;42.596;23.044;2023-03-23T00:30:49;92925.81;;;5.22;98.59
15568;BME280;7885;42.596;23.044;2023-03-23T00:33:16;92925.56;;;5.31;98.20
15568;BME280;7885;42.596;23.044;2023-03-23T00:35:43;92923.63;;;5.31;96.92
15568;BME280;7885;42.596;23.044;2023-03-23T00:38:10;92929.88;;;5.35;96.42
15568;BME280;7885;42.596;23.044;2023-03-23T00:40:37;92931.44;;;5.36;94.77
15568;BME280;7885;42.596;23.044;2023-03-23T00:43:04;92928.34;;;5.38;95.84
15568;BME280;7885;42.596;23.044;2023-03-23T00:45:31;92916.31;;;5.32;95.52
15568;BME280;7885;42.596;23.044;2023-03-23T00:48:01;92915.59;;;5.35;95.15
15568;BME280;7885;42.596;23.044;2023-03-23T00:50:30;92934.31;;;5.47;95.78
15568;BME280;7885;42.596;23.044;2023-03-23T00:52:57;92917.31;;;5.46;96.76
15568;BME280;7885;42.596;23.044;2023-03-23T00:55:24;92925.81;;;5.48;98.01
15568;BME280;7885;42.596;23.044;2023-03-23T00:57:51;92904.13;;;5.41;96.85
15568;BME280;7885;42.596;23.044;2023-03-23T01:00:19;92929.69;;;5.47;96.94
15568;BME280;7885;42.596;23.044;2023-03-23T01:02:46;92872.06;;;5.10;96.09
15568;BME280;7885;42.596;23.044;2023-03-23T01:05:14;92913.22;;;5.30;95.91
15568;BME280;7885;42.596;23.044;2023-03-23T01:07:41;92929.47;;;5.33;95.40
15568;BME280;7885;42.596;23.044;2023-03-23T01:10:10;92932.75;;;5.23;96.15
15568;BME280;7885;42.596;23.044;2023-03-23T01:12:42;92930.34;;;5.18;97.07
15568;BME280;7885;42.596;23.044;2023-03-23T01:15:12;92925.69;;;5.15;97.50
15568;BME280;7885;42.596;23.044;2023-03-23T01:17:40;92920.88;;;5.05;98.11
15568;BME280;7885;42.596;23.044;2023-03-23T01:20:07;92915.31;;;4.94;99.29
15568;BME280;7885;42.596;23.044;2023-03-23T01:22:35;92916.38;;;4.90;99.74
15568;BME280;7885;42.596;23.044;2023-03-23T01:25:02;92897.97;;;4.73;98.36
15568;BME280;7885;42.596;23.044;2023-03-23T01:27:29;92870.34;;;4.56;98.23
15568;BME280;7885;42.596;23.044;2023-03-23T01:29:56;92910.44;;;4.81;96.81
15568;BME280;7885;42.596;23.044;2023-03-23T01:32:23;92910.31;;;4.74;96.20
15568;BME280;7885;42.596;23.044;2023-03-23T01:34:49;92887.66;;;4.55;95.68
15568;BME280;7885;42.596;23.044;2023-03-23T01:37:16;92914.66;;;4.59;96.11
15568;BME280;7885;42.596;23.044;2023-03-23T01:39:44;92918.13;;;4.59;99.35
15568;BME280;7885;42.596;23.044;2023-03-23T01:42:11;92886.25;;;4.42;100.00
15568;BME280;7885;42.596;23.044;2023-03-23T01:47:54;92893.22;;;4.43;100.00
15568;BME280;7885;42.596;23.044;2023-03-23T01:50:23;92907.09;;;4.65;100.00
15568;BME280;7885;42.596;23.044;2023-03-23T01:52:53;92891.84;;;4.53;100.00
15568;BME280;7885;42.596;23.044;2023-03-23T01:55:25;92904.78;;;4.67;100.00
15568;BME280;7885;42.596;23.044;2023-03-23T01:57:54;92905.22;;;4.69;99.48
15568;BME280;7885;42.596;23.044;2023-03-23T02:00:22;92884.19;;;4.55;97.71
15568;BME280;7885;42.596;23.044;2023-03-23T02:02:51;92907.09;;;4.65;96.22
15568;BME280;7885;42.596;23.044;2023-03-23T02:05:24;92911.63;;;4.61;95.10
15568;BME280;7885;42.596;23.044;2023-03-23T02:07:54;92912.63;;;4.52;94.37
15568;BME280;7885;42.596;23.044;2023-03-23T02:10:25;92917.16;;;4.48;94.35
15568;BME280;7885;42.596;23.044;2023-03-23T02:12:52;92915.53;;;4.44;95.08
15568;BME280;7885;42.596;23.044;2023-03-23T02:15:19;92884.31;;;4.20;96.07
15568;BME280;7885;42.596;23.044;2023-03-23T02:17:52;92906.81;;;4.31;95.98
15568;BME280;7885;42.596;23.044;2023-03-23T02:20:48;92922.00;;;4.39;96.42
15568;BME280;7885;42.596;23.044;2023-03-23T02:23:42;92919.22;;;4.36;96.85
15568;BME280;7885;42.596;23.044;2023-03-23T02:26:32;92922.97;;;4.31;96.84
15568;BME280;7885;42.596;23.044;2023-03-23T02:32:28;92918.50;;;4.39;100.00
15568;BME280;7885;42.596;23.044;2023-03-23T02:35:05;92919.38;;;4.43;100.00
15568;BME280;7885;42.596;23.044;2023-03-23T02:37:37;92921.00;;;4.47;99.35
15568;BME280;7885;42.596;23.044;2023-03-23T02:40:09;92913.78;;;4.51;97.86
15568;BME280;7885;42.596;23.044;2023-03-23T02:42:39;92923.97;;;4.42;95.87
15568;BME280;7885;42.596;23.044;2023-03-23T02:45:10;92887.56;;;4.10;96.49
15568;BME280;7885;42.596;23.044;2023-03-23T02:47:39;92930.78;;;4.36;96.79
15568;BME280;7885;42.596;23.044;2023-03-23T02:50:11;92920.41;;;4.38;96.26
15568;BME280;7885;42.596;23.044;2023-03-23T02:52:41;92927.09;;;4.44;96.32
15568;BME280;7885;42.596;23.044;2023-03-23T02:55:10;92933.19;;;4.41;95.02
15568;BME280;7885;42.596;23.044;2023-03-23T02:57:39;92899.16;;;4.14;95.20
15568;BME280;7885;42.596;23.044;2023-03-23T03:00:08;92924.13;;;4.30;95.73
15568;BME280;7885;42.596;23.044;2023-03-23T03:02:40;92933.75;;;4.31;95.10
15568;BME280;7885;42.596;23.044;2023-03-23T03:05:14;92874.38;;;3.86;93.87
15568;BME280;7885;42.596;23.044;2023-03-23T03:07:55;92937.78;;;4.22;93.01
15568;BME280;7885;42.596;23.044;2023-03-23T03:10:29;92931.91;;;4.16;92.71
15568;BME280;7885;42.596;23.044;2023-03-23T03:13:03;92941.06;;;4.12;92.57
15568;BME280;7885;42.596;23.044;2023-03-23T03:15:34;92942.16;;;3.91;93.27
15568;BME280;7885;42.596;23.044;2023-03-23T03:18:08;92942.88;;;3.88;94.25
15568;BME280;7885;42.596;23.044;2023-03-23T03:20:55;92936.69;;;3.88;93.98
15568;BME280;7885;42.596;23.044;2023-03-23T03:23:27;92892.84;;;3.52;94.67
15568;BME280;7885;42.596;23.044;2023-03-23T03:25:55;92937.81;;;3.87;95.75
15568;BME280;7885;42.596;23.044;2023-03-23T03:28:24;92917.53;;;3.74;96.27
15568;BME280;7885;42.596;23.044;2023-03-23T03:30:54;92933.59;;;3.86;96.54
15568;BME280;7885;42.596;23.044;2023-03-23T03:33:23;92927.44;;;3.85;96.30
15568;BME280;7885;42.596;23.044;2023-03-23T03:35:53;92953.88;;;3.99;96.29
15568;BME280;7885;42.596;23.044;2023-03-23T03:38:22;92952.03;;;4.03;96.16
15568;BME280;7885;42.596;23.044;2023-03-23T03:40:49;92955.56;;;4.07;95.56
15568;BME280;7885;42.596;23.044;2023-03-23T03:43:16;92966.34;;;4.07;95.14
15568;BME280;7885;42.596;23.044;2023-03-23T03:45:43;92960.94;;;4.07;94.82
15568;BME280;7885;42.596;23.044;2023-03-23T03:48:11;92966.47;;;4.14;94.67
15568;BME280;7885;42.596;23.044;2023-03-23T03:50:38;92944.78;;;3.88;94.89
15568;BME280;7885;42.596;23.044;2023-03-23T03:53:06;92964.91;;;3.94;96.61
15568;BME280;7885;42.596;23.044;2023-03-23T03:55:33;92962.56;;;3.92;98.63
15568;BME280;7885;42.596;23.044;2023-03-23T03:58:01;92962.22;;;3.94;100.00
15568;BME280;7885;42.596;23.044;2023-03-23T04:00:28;92957.69;;;3.98;100.00
15568;BME280;7885;42.596;23.044;2023-03-23T04:02:55;92961.56;;;4.00;100.00
15568;BME280;7885;42.596;23.044;2023-03-23T04:05:22;92966.19;;;4.00;100.00
15568;BME280;7885;42.596;23.044;2023-03-23T04:07:50;92959.41;;;4.06;100.00
15568;BME280;7885;42.596;23.044;2023-03-23T04:10:20;92950.31;;;4.14;99.91
15568;BME280;7885;42.596;23.044;2023-03-23T04:12:47;92950.31;;;4.14;99.00
15568;BME280;7885;42.596;23.044;2023-03-23T04:15:14;92959.88;;;4.27;98.80
15568;BME280;7885;42.596;23.044;2023-03-23T04:17:41;92902.56;;;3.92;98.24
15568;BME280;7885;42.596;23.044;2023-03-23T04:20:09;92957.78;;;4.40;98.98
15568;BME280;7885;42.596;23.044;2023-03-23T04:22:43;92944.75;;;4.42;98.94
15568;BME280;7885;42.596;23.044;2023-03-23T04:25:11;92957.72;;;4.55;99.05
15568;BME280;7885;42.596;23.044;2023-03-23T04:27:41;92952.31;;;4.55;98.17
15568;BME280;7885;42.596;23.044;2023-03-23T04:30:12;92959.69;;;4.58;99.02
15568;BME280;7885;42.596;23.044;2023-03-23T04:32:40;92959.34;;;4.60;99.65
15568;BME280;7885;42.596;23.044;2023-03-23T04:35:09;92962.53;;;4.66;99.69
15568;BME280;7885;42.596;23.044;2023-03-23T04:37:36;92974.16;;;4.70;100.00
15568;BME280;7885;42.596;23.044;2023-03-23T04:40:05;92971.53;;;4.73;100.00
15568;BME280;7885;42.596;23.044;2023-03-23T04:42:37;92966.59;;;4.75;99.91
15568;BME280;7885;42.596;23.044;2023-03-23T04:45:07;92925.38;;;4.55;99.46
15568;BME280;7885;42.596;23.044;2023-03-23T04:47:36;92946.66;;;4.61;99.97
15568;BME280;7885;42.596;23.044;2023-03-23T04:50:07;92955.72;;;4.72;100.00
15568;BME280;7885;42.596;23.044;2023-03-23T04:52:35;92927.25;;;4.51;100.00
15568;BME280;7885;42.596;23.044;2023-03-23T04:55:04;92965.44;;;4.76;100.00
15568;BME280;7885;42.596;23.044;2023-03-23T04:57:31;92983.38;;;4.88;100.00
15568;BME280;7885;42.596;23.044;2023-03-23T04:59:58;92991.88;;;4.90;100.00
15568;BME280;7885;42.596;23.044;2023-03-23T05:02:26;92996.84;;;4.88;100.00
15568;BME280;7885;42.596;23.044;2023-03-23T05:04:55;92991.19;;;4.93;100.00
15568;BME280;7885;42.596;23.044;2023-03-23T05:07:22;92988.59;;;5.00;100.00
15568;BME280;7885;42.596;23.044;2023-03-23T05:09:49;92983.50;;;4.95;100.00
15568;BME280;7885;42.596;23.044;2023-03-23T05:12:16;92978.97;;;4.99;100.00
15568;BME280;7885;42.596;23.044;2023-03-23T05:14:43;93005.03;;;5.14;99.99
15568;BME280;7885;42.596;23.044;2023-03-23T05:17:10;92985.91;;;5.00;99.98
15568;BME280;7885;42.596;23.044;2023-03-23T05:19:39;93004.03;;;5.22;99.73
15568;BME280;7885;42.596;23.044;2023-03-23T05:22:09;92963.19;;;5.01;99.67
15568;BME280;7885;42.596;23.044;2023-03-23T05:24:38;92998.06;;;5.32;99.59
15568;BME280;7885;42.596;23.044;2023-03-23T05:27:04;93003.56;;;5.39;99.49
15568;BME280;7885;42.596;23.044;2023-03-23T05:29:33;92990.28;;;5.27;98.79
15568;BME280;7885;42.596;23.044;2023-03-23T05:32:01;93005.84;;;5.37;99.12
15568;BME280;7885;42.596;23.044;2023-03-23T05:34:29;93009.38;;;5.41;99.88
15568;BME280;7885;42.596;23.044;2023-03-23T05:36:59;93010.72;;;5.51;100.00
15568;BME280;7885;42.596;23.044;2023-03-23T05:39:26;93004.72;;;5.61;99.77
15568;BME280;7885;42.596;23.044;2023-03-23T05:41:53;93015.19;;;5.66;98.66
15568;BME280;7885;42.596;23.044;2023-03-23T05:44:20;93017.94;;;5.70;99.00
15568;BME280;7885;42.596;23.044;2023-03-23T05:46:48;93015.81;;;5.79;99.27
15568;BME280;7885;42.596;23.044;2023-03-23T05:49:15;93014.78;;;5.87;99.06
15568;BME280;7885;42.596;23.044;2023-03-23T05:51:42;93021.13;;;5.98;99.10
15568;BME280;7885;42.596;23.044;2023-03-23T05:54:10;93020.94;;;6.10;98.42
15568;BME280;7885;42.596;23.044;2023-03-23T05:56:37;93012.53;;;6.15;98.12
15568;BME280;7885;42.596;23.044;2023-03-23T05:59:04;93027.47;;;6.35;97.30
15568;BME280;7885;42.596;23.044;2023-03-23T06:01:31;92977.00;;;6.13;97.06
15568;BME280;7885;42.596;23.044;2023-03-23T06:07:20;93009.19;;;6.51;95.67
15568;BME280;7885;42.596;23.044;2023-03-23T06:09:48;93032.13;;;6.65;95.63
15568;BME280;7885;42.596;23.044;2023-03-23T06:12:16;93031.06;;;6.73;95.78
15568;BME280;7885;42.596;23.044;2023-03-23T06:14:45;93032.22;;;6.72;96.20
15568;BME280;7885;42.596;23.044;2023-03-23T06:17:12;93029.56;;;6.75;94.80
15568;BME280;7885;42.596;23.044;2023-03-23T06:19:39;93030.75;;;6.78;94.97
15568;BME280;7885;42.596;23.044;2023-03-23T06:22:05;93030.41;;;6.83;94.77
15568;BME280;7885;42.596;23.044;2023-03-23T06:24:32;93030.19;;;6.95;95.48
15568;BME280;7885;42.596;23.044;2023-03-23T06:27:01;92934.66;;;6.24;94.65
15568;BME280;7885;42.596;23.044;2023-03-23T06:29:28;93022.06;;;6.95;93.85
15568;BME280;7885;42.596;23.044;2023-03-23T06:31:57;92961.84;;;6.65;93.68
15568;BME280;7885;42.596;23.044;2023-03-23T06:34:25;93029.31;;;7.21;93.78
15568;BME280;7885;42.596;23.044;2023-03-23T06:36:51;92975.03;;;7.03;93.02
15568;BME280;7885;42.596;23.044;2023-03-23T06:39:18;93032.59;;;7.37;93.49
15568;BME280;7885;42.596;23.044;2023-03-23T06:41:46;93032.72;;;7.47;93.52
15568;BME280;7885;42.596;23.044;2023-03-23T06:44:14;93027.22;;;7.40;93.50
15568;BME280;7885;42.596;23.044;2023-03-23T06:46:41;93028.81;;;7.45;92.88
15568;BME280;7885;42.596;23.044;2023-03-23T06:49:09;93045.63;;;7.61;92.76
15568;BME280;7885;42.596;23.044;2023-03-23T06:51:36;93036.44;;;7.76;93.07
15568;BME280;7885;42.596;23.044;2023-03-23T06:54:03;93041.19;;;7.86;93.16
15568;BME280;7885;42.596;23.044;2023-03-23T06:56:30;93026.19;;;7.96;92.73
15568;BME280;7885;42.596;23.044;2023-03-23T06:58:57;93043.41;;;8.21;92.33
15568;BME280;7885;42.596;23.044;2023-03-23T07:01:26;93044.41;;;8.46;91.64
15568;BME280;7885;42.596;23.044;2023-03-23T07:03:53;93041.81;;;8.68;90.46
15568;BME280;7885;42.596;23.044;2023-03-23T07:06:21;93022.06;;;8.71;89.61
15568;BME280;7885;42.596;23.044;2023-03-23T07:08:48;93046.25;;;9.04;89.01
15568;BME280;7885;42.596;23.044;2023-03-23T07:11:14;93012.91;;;9.07;87.39
15568;BME280;7885;42.596;23.044;2023-03-23T07:13:41;93048.00;;;9.54;87.11
15568;BME280;7885;42.596;23.044;2023-03-23T07:16:08;93049.22;;;9.82;85.59
15568;BME280;7885;42.596;23.044;2023-03-23T07:18:37;93055.91;;;10.16;84.89
15568;BME280;7885;42.596;23.044;2023-03-23T07:21:04;93051.97;;;10.56;82.89
15568;BME280;7885;42.596;23.044;2023-03-23T07:23:31;93050.41;;;10.62;82.26
15568;BME280;7885;42.596;23.044;2023-03-23T07:25:58;93054.31;;;10.72;82.12
15568;BME280;7885;42.596;23.044;2023-03-23T07:28:26;93055.06;;;10.76;81.00
15568;BME280;7885;42.596;23.044;2023-03-23T07:30:52;93050.78;;;10.82;81.40
15568;BME280;7885;42.596;23.044;2023-03-23T07:33:19;93055.81;;;10.87;81.60
15568;BME280;7885;42.596;23.044;2023-03-23T07:35:48;93054.28;;;10.93;81.61
15568;BME280;7885;42.596;23.044;2023-03-23T07:38:14;93020.06;;;10.78;81.53
15568;BME280;7885;42.596;23.044;2023-03-23T07:40:41;93061.94;;;11.30;80.65
15568;BME280;7885;42.596;23.044;2023-03-23T07:43:09;93044.44;;;12.00;78.36
15568;BME280;7885;42.596;23.044;2023-03-23T07:45:36;93027.38;;;12.85;74.13
15568;BME280;7885;42.596;23.044;2023-03-23T07:48:03;93077.19;;;13.40;70.66
15568;BME280;7885;42.596;23.044;2023-03-23T07:50:30;93080.31;;;14.56;68.63
15568;BME280;7885;42.596;23.044;2023-03-23T07:52:59;93083.63;;;16.52;62.59
15568;BME280;7885;42.596;23.044;2023-03-23T07:55:26;93078.63;;;18.01;57.14
15568;BME280;7885;42.596;23.044;2023-03-23T07:57:54;92998.47;;;20.09;50.79
15568;BME280;7885;42.596;23.044;2023-03-23T08:00:22;93078.75;;;22.98;43.90
15568;BME280;7885;42.596;23.044;2023-03-23T08:02:51;93076.63;;;24.94;39.33
15568;BME280;7885;42.596;23.044;2023-03-23T08:05:19;93047.41;;;26.40;35.73
15568;BME280;7885;42.596;23.044;2023-03-23T08:07:46;93065.88;;;27.51;32.73
15568;BME280;7885;42.596;23.044;2023-03-23T08:10:15;93050.09;;;28.83;31.11
15568;BME280;7885;42.596;23.044;2023-03-23T08:12:43;93058.66;;;30.02;27.73
15568;BME280;7885;42.596;23.044;2023-03-23T08:15:11;93059.63;;;30.68;25.89
15568;BME280;7885;42.596;23.044;2023-03-23T08:17:40;93047.53;;;31.73;25.10
15568;BME280;7885;42.596;23.044;2023-03-23T08:20:09;93026.81;;;32.38;23.88
15568;BME280;7885;42.596;23.044;2023-03-23T08:22:39;93068.81;;;33.16;22.23
15568;BME280;7885;42.596;23.044;2023-03-23T08:25:08;93073.56;;;33.85;21.88
15568;BME280;7885;42.596;23.044;2023-03-23T08:27:37;93071.22;;;34.28;21.96
15568;BME280;7885;42.596;23.044;2023-03-23T08:30:08;93064.25;;;34.42;21.05
15568;BME280;7885;42.596;23.044;2023-03-23T08:32:36;93062.06;;;34.75;20.93
15568;BME280;7885;42.596;23.044;2023-03-23T08:35:03;93059.28;;;35.29;20.23
15568;BME280;7885;42.596;23.044;2023-03-23T08:37:30;93032.25;;;35.08;19.64
15568;BME280;7885;42.596;23.044;2023-03-23T08:39:57;93052.31;;;35.30;18.68
15568;BME280;7885;42.596;23.044;2023-03-23T08:49:08;93038.38;;;36.59;17.83
15568;BME280;7885;42.596;23.044;2023-03-23T08:51:35;93051.66;;;36.71;17.05
15568;BME280;7885;42.596;23.044;2023-03-23T08:54:02;93054.84;;;37.11;17.26
15568;BME280;7885;42.596;23.044;2023-03-23T08:56:29;93043.81;;;37.00;17.06
15568;BME280;7885;42.596;23.044;2023-03-23T08:58:56;93057.13;;;37.20;17.00
15568;BME280;7885;42.596;23.044;2023-03-23T09:01:22;93035.59;;;37.40;17.11
15568;BME280;7885;42.596;23.044;2023-03-23T09:03:49;92989.03;;;37.35;16.87
15568;BME280;7885;42.596;23.044;2023-03-23T09:06:18;93046.66;;;37.97;16.83
15568;BME280;7885;42.596;23.044;2023-03-23T09:08:45;93037.50;;;38.28;15.97
15568;BME280;7885;42.596;23.044;2023-03-23T09:11:11;93037.28;;;38.57;15.81
15568;BME280;7885;42.596;23.044;2023-03-23T09:13:39;93038.84;;;38.42;15.14
15568;BME280;7885;42.596;23.044;2023-03-23T09:16:07;93032.97;;;38.25;14.50
15568;BME280;7885;42.596;23.044;2023-03-23T09:18:35;93026.91;;;38.21;15.19
15568;BME280;7885;42.596;23.044;2023-03-23T09:21:02;93009.44;;;38.32;15.63
15568;BME280;7885;42.596;23.044;2023-03-23T09:23:30;93024.59;;;38.98;15.51
15568;BME280;7885;42.596;23.044;2023-03-23T09:26:00;93021.44;;;38.86;15.67
15568;BME280;7885;42.596;23.044;2023-03-23T09:28:27;93022.94;;;38.87;15.53
15568;BME280;7885;42.596;23.044;2023-03-23T09:30:55;92988.66;;;38.07;15.94
15568;BME280;7885;42.596;23.044;2023-03-23T09:33:24;93022.44;;;38.66;16.11
15568;BME280;7885;42.596;23.044;2023-03-23T09:35:52;93017.59;;;38.99;15.37
15568;BME280;7885;42.596;23.044;2023-03-23T09:38:19;93006.00;;;39.36;14.87
15568;BME280;7885;42.596;23.044;2023-03-23T09:40:50;93003.47;;;39.65;14.73
15568;BME280;7885;42.596;23.044;2023-03-23T09:46:51;92947.66;;;38.33;14.44
15568;BME280;7885;42.596;23.044;2023-03-23T09:49:22;93011.41;;;39.17;14.28
15568;BME280;7885;42.596;23.044;2023-03-23T09:51:53;93006.22;;;39.31;14.02
15568;BME280;7885;42.596;23.044;2023-03-23T09:54:26;92993.56;;;38.84;14.07
15568;BME280;7885;42.596;23.044;2023-03-23T09:56:55;93006.34;;;39.08;13.80
15568;BME280;7885;42.596;23.044;2023-03-23T09:59:27;93007.03;;;38.84;14.49
15568;BME280;7885;42.596;23.044;2023-03-23T10:01:58;92984.03;;;38.42;14.60
15568;BME280;7885;42.596;23.044;2023-03-23T10:04:32;92989.06;;;37.81;14.73
15568;BME280;7885;42.596;23.044;2023-03-23T10:07:09;92992.03;;;36.56;15.12
15568;BME280;7885;42.596;23.044;2023-03-23T10:09:36;92992.91;;;36.43;15.10
15568;BME280;7885;42.596;23.044;2023-03-23T10:12:10;92987.25;;;36.43;15.48
15568;BME280;7885;42.596;23.044;2023-03-23T10:14:57;92938.13;;;33.66;16.98
15568;BME280;7885;42.596;23.044;2023-03-23T10:17:28;92984.06;;;34.32;16.59
15568;BME280;7885;42.596;23.044;2023-03-23T10:20:02;92971.03;;;33.77;17.77
15568;BME280;7885;42.596;23.044;2023-03-23T10:22:38;92981.34;;;35.28;16.92
15568;BME280;7885;42.596;23.044;2023-03-23T10:25:15;92937.69;;;34.48;16.34
15568;BME280;7885;42.596;23.044;2023-03-23T10:27:46;92969.53;;;34.96;16.33
15568;BME280;7885;42.596;23.044;2023-03-23T10:30:19;92976.13;;;34.78;16.65
15568;BME280;7885;42.596;23.044;2023-03-23T10:32:51;92978.88;;;34.23;17.02
15568;BME280;7885;42.596;23.044;2023-03-23T10:35:22;92973.97;;;34.71;16.19
15568;BME280;7885;42.596;23.044;2023-03-23T10:37:56;92973.78;;;34.56;16.56
15568;BME280;7885;42.596;23.044;2023-03-23T10:40:27;92970.00;;;35.08;16.73
15568;BME280;7885;42.596;23.044;2023-03-23T10:42:57;92953.06;;;34.74;16.52
15568;BME280;7885;42.596;23.044;2023-03-23T10:45:26;92968.06;;;34.82;16.89
15568;BME280;7885;42.596;23.044;2023-03-23T10:47:57;92962.59;;;34.84;16.45
15568;BME280;7885;42.596;23.044;2023-03-23T10:50:29;92965.06;;;34.67;17.07
15568;BME280;7885;42.596;23.044;2023-03-23T10:52:58;92963.06;;;35.29;16.53
15568;BME280;7885;42.596;23.044;2023-03-23T10:55:36;92956.53;;;34.80;16.60
15568;BME280;7885;42.596;23.044;2023-03-23T10:58:08;92903.09;;;34.56;16.75
15568;BME280;7885;42.596;23.044;2023-03-23T11:00:41;92957.13;;;34.18;17.55
15568;BME280;7885;42.596;23.044;2023-03-23T11:03:26;92949.09;;;34.90;17.25
15568;BME280;7885;42.596;23.044;2023-03-23T11:05:56;92936.78;;;35.49;16.02
15568;BME280;7885;42.596;23.044;2023-03-23T11:08:27;92909.72;;;34.92;16.21
15568;BME280;7885;42.596;23.044;2023-03-23T11:10:56;92950.91;;;35.21;16.33
15568;BME280;7885;42.596;23.044;2023-03-23T11:13:30;92940.50;;;34.62;16.77
15568;BME280;7885;42.596;23.044;2023-03-23T11:15:58;92948.38;;;33.11;17.28
15568;BME280;7885;42.596;23.044;2023-03-23T11:18:27;92919.59;;;32.68;18.18
15568;BME280;7885;42.596;23.044;2023-03-23T11:21:02;92939.81;;;32.85;17.76
15568;BME280;7885;42.596;23.044;2023-03-23T11:23:33;92946.78;;;32.97;18.39
15568;BME280;7885;42.596;23.044;2023-03-23T11:26:10;92943.81;;;32.58;18.59
15568;BME280;7885;42.596;23.044;2023-03-23T11:28:43;92937.31;;;31.45;19.56
15568;BME280;7885;42.596;23.044;2023-03-23T11:31:11;92928.41;;;30.57;20.20
15568;BME280;7885;42.596;23.044;2023-03-23T11:33:48;92922.09;;;29.52;20.30
15568;BME280;7885;42.596;23.044;2023-03-23T11:36:20;92918.88;;;29.04;22.20
15568;BME280;7885;42.596;23.044;2023-03-23T11:38:53;92911.53;;;28.56;23.03
15568;BME280;7885;42.596;23.044;2023-03-23T11:41:31;92916.22;;;27.62;23.16
15568;BME280;7885;42.596;23.044;2023-03-23T11:44:07;92860.91;;;27.29;23.08
15568;BME280;7885;42.596;23.044;2023-03-23T11:46:42;92906.31;;;27.66;23.85
15568;BME280;7885;42.596;23.044;2023-03-23T11:49:18;92897.50;;;27.25;23.50
15568;BME280;7885;42.596;23.044;2023-03-23T11:51:49;92913.56;;;27.41;24.00
15568;BME280;7885;42.596;23.044;2023-03-23T11:54:24;92910.34;;;27.54;23.78
15568;BME280;7885;42.596;23.044;2023-03-23T11:56:53;92904.31;;;27.78;23.83
15568;BME280;7885;42.596;23.044;2023-03-23T11:59:27;92877.34;;;27.86;24.02
15568;BME280;7885;42.596;23.044;2023-03-23T12:02:01;92879.41;;;27.91;23.45
15568;BME280;7885;42.596;23.044;2023-03-23T12:04:39;92893.44;;;28.24;23.63
15568;BME280;7885;42.596;23.044;2023-03-23T12:07:52;92880.50;;;28.32;23.44
15568;BME280;7885;42.596;23.044;2023-03-23T12:10:27;92898.81;;;28.67;23.01
15568;BME280;7885;42.596;23.044;2023-03-23T12:13:06;92879.47;;;28.13;23.96
15568;BME280;7885;42.596;23.044;2023-03-23T12:15:43;92897.81;;;28.47;23.10
15568;BME280;7885;42.596;23.044;2023-03-23T12:18:19;92900.84;;;28.27;23.07
15568;BME280;7885;42.596;23.044;2023-03-23T12:21:00;92886.34;;;28.40;22.77
15568;BME280;7885;42.596;23.044;2023-03-23T12:23:36;92897.72;;;27.92;23.72
15568;BME280;7885;42.596;23.044;2023-03-23T12:26:18;92860.00;;;27.48;22.91
15568;BME280;7885;42.596;23.044;2023-03-23T12:29:08;92889.56;;;27.72;23.70
15568;BME280;7885;42.596;23.044;2023-03-23T12:31:46;92890.94;;;27.39;24.13
15568;BME280;7885;42.596;23.044;2023-03-23T12:34:23;92876.19;;;27.33;25.16
15568;BME280;7885;42.596;23.044;2023-03-23T12:37:11;92892.16;;;27.27;24.31
15568;BME280;7885;42.596;23.044;2023-03-23T12:39:50;92837.97;;;26.60;24.68
15568;BME280;7885;42.596;23.044;2023-03-23T12:42:26;92836.66;;;26.55;25.09
15568;BME280;7885;42.596;23.044;2023-03-23T12:45:02;92879.56;;;26.95;23.93
15568;BME280;7885;42.596;23.044;2023-03-23T12:47:40;92873.34;;;26.74;25.35
15568;BME280;7885;42.596;23.044;2023-03-23T12:50:13;92879.72;;;26.43;24.96
15568;BME280;7885;42.596;23.044;2023-03-23T12:52:50;92874.06;;;26.32;25.36
15568;BME280;7885;42.596;23.044;2023-03-23T12:55:25;92870.81;;;26.13;25.34
15568;BME280;7885;42.596;23.044;2023-03-23T12:57:58;92875.59;;;26.33;25.27
15568;BME280;7885;42.596;23.044;2023-03-23T13:00:28;92872.88;;;26.13;26.72
15568;BME280;7885;42.596;23.044;2023-03-23T13:03:01;92825.44;;;25.82;26.61
15568;BME280;7885;42.596;23.044;2023-03-23T13:05:42;92865.38;;;25.68;26.24
15568;BME280;7885;42.596;23.044;2023-03-23T13:08:14;92860.34;;;25.72;26.54
15568;BME280;7885;42.596;23.044;2023-03-23T13:10:45;92860.38;;;25.77;26.77
15568;BME280;7885;42.596;23.044;2023-03-23T13:13:16;92850.63;;;25.61;27.09
15568;BME280;7885;42.596;23.044;2023-03-23T13:15:54;92856.94;;;25.62;25.32
15568;BME280;7885;42.596;23.044;2023-03-23T13:18:31;92846.22;;;25.55;25.40
15568;BME280;7885;42.596;23.044;2023-03-23T13:21:08;92846.84;;;25.65;26.15
15568;BME280;7885;42.596;23.044;2023-03-23T13:23:39;92824.25;;;25.62;26.78
15568;BME280;7885;42.596;23.044;2023-03-23T13:26:09;92846.09;;;25.70;26.45
15568;BME280;7885;42.596;23.044;2023-03-23T13:28:48;92851.44;;;25.68;26.27
15568;BME280;7885;42.596;23.044;2023-03-23T13:31:19;92844.41;;;25.52;26.24
15568;BME280;7885;42.596;23.044;2023-03-23T13:33:57;92827.34;;;25.44;26.74
15568;BME280;7885;42.596;23.044;2023-03-23T13:36:28;92837.22;;;25.45;26.91
15568;BME280;7885;42.596;23.044;2023-03-23T13:38:57;92832.91;;;25.19;26.71
15568;BME280;7885;42.596;23.044;2023-03-23T13:41:26;92845.69;;;25.10;27.18